Check out our new BloomSky Weather System.

Active alerts

Houston, TX
  Details for Houston, TX Dense Fog Advisory


Thunder radar  blitzortung!


Rain radar more information rain snow radar


Visit our other weather sites:

Template documentation
and downloads

And another site



Weather Underground History page Text

Daily Summary for June 4, 2017 Units:  English    Metric   Both
« Previous Day
Next Day »
Daily Weekly Monthly Yearly Custom
  High: Low: Average:
Temperature: 89.4 °F 70.7 °F 78 °F
Dew Point: 76.1 °F 68.5 °F 72.5 °F
Humidity: 99 % 61 % 85 %
Wind Speed: 15.0 mph 0.0 mph 1.3 mph
Wind Gust: 19.0 mph - -
Wind:- - SW
Pressure: 29.87 in 29.74 in -
Precipitation: 0.70 in    
Historical Graphs
 
 
Tabular Data for June 4, 2017
Time Temperature Dew Point Pressure Wind Wind Speed Wind Gust Humidity Rainfall Rate (Hourly)
00:00 75.4 °F 72.9 °F 29.87 in Calm   2.0 mph 92 % 0.00 in
00:05 75.2 °F 72.7 °F 29.87 in Calm   2.0 mph 92 % 0.00 in
00:10 75.0 °F 72.9 °F 29.87 in Calm   2.0 mph 93 % 0.00 in
00:15 75.0 °F 72.9 °F 29.87 in Calm   2.0 mph 93 % 0.00 in
00:17 75.0 °F 72.9 °F 29.87 in Calm   2.0 mph 93 % 0.00 in
00:22 74.8 °F 72.7 °F 29.87 in Calm   2.0 mph 93 % 0.00 in
00:27 74.8 °F 72.7 °F 29.86 in Calm   2.0 mph 93 % 0.00 in
00:32 74.8 °F 73.0 °F 29.87 in Calm   1.0 mph 94 % 0.00 in
00:37 74.8 °F 73.0 °F 29.87 in Calm   1.0 mph 94 % 0.00 in
00:42 74.7 °F 72.9 °F 29.87 in Calm   1.0 mph 94 % 0.00 in
00:47 74.7 °F 72.9 °F 29.87 in Calm   1.0 mph 94 % 0.00 in
00:52 74.7 °F 72.9 °F 29.86 in Calm   1.0 mph 94 % 0.00 in
00:57 74.7 °F 72.9 °F 29.86 in Calm   1.0 mph 94 % 0.00 in
01:02 74.5 °F 72.7 °F 29.85 in Calm   1.0 mph 94 % 0.00 in
01:07 74.5 °F 72.7 °F 29.86 in Calm   1.0 mph 94 % 0.00 in
01:12 74.5 °F 72.7 °F 29.85 in Calm   1.0 mph 94 % 0.00 in
01:17 74.5 °F 73.0 °F 29.85 in Calm   1.0 mph 95 % 0.00 in
01:22 74.5 °F 73.0 °F 29.85 in Calm   1.0 mph 95 % 0.00 in
01:27 74.3 °F 72.9 °F 29.85 in Calm   2.0 mph 95 % 0.00 in
01:32 74.3 °F 72.9 °F 29.85 in Calm   2.0 mph 95 % 0.00 in
01:37 74.1 °F 72.7 °F 29.85 in Calm   2.0 mph 95 % 0.00 in
01:42 74.1 °F 72.7 °F 29.84 in Calm   1.0 mph 95 % 0.00 in
01:47 74.1 °F 72.7 °F 29.85 in Calm   1.0 mph 95 % 0.00 in
01:53 74.3 °F 72.9 °F 29.85 in Calm   1.0 mph 95 % 0.00 in
01:58 74.3 °F 72.9 °F 29.85 in Calm   1.0 mph 95 % 0.00 in
02:03 74.1 °F 72.7 °F 29.85 in Calm     95 % 0.00 in
02:08 74.1 °F 72.7 °F 29.85 in Calm     95 % 0.00 in
02:13 73.9 °F 72.5 °F 29.84 in Calm     95 % 0.00 in
02:18 74.1 °F 72.9 °F 29.85 in Calm     96 % 0.00 in
02:23 74.1 °F 72.9 °F 29.85 in Calm     96 % 0.00 in
02:28 74.1 °F 72.9 °F 29.85 in Calm     96 % 0.00 in
02:33 74.1 °F 72.9 °F 29.85 in Calm     96 % 0.00 in
02:38 74.1 °F 72.9 °F 29.85 in Calm     96 % 0.00 in
02:43 74.1 °F 72.9 °F 29.85 in Calm   1.0 mph 96 % 0.00 in
02:48 74.1 °F 72.9 °F 29.85 in Calm   1.0 mph 96 % 0.00 in
02:53 74.1 °F 72.9 °F 29.85 in Calm   1.0 mph 96 % 0.00 in
02:58 74.1 °F 72.9 °F 29.85 in Calm     96 % 0.00 in
03:03 74.1 °F 72.9 °F 29.84 in Calm     96 % 0.00 in
03:08 74.1 °F 72.9 °F 29.84 in Calm     96 % 0.00 in
03:13 74.1 °F 72.9 °F 29.84 in Calm     96 % 0.00 in
03:18 73.9 °F 72.7 °F 29.83 in Calm     96 % 0.00 in
03:23 73.9 °F 72.7 °F 29.83 in Calm     96 % 0.00 in
03:28 73.9 °F 72.7 °F 29.83 in Calm     96 % 0.00 in
03:33 73.9 °F 72.7 °F 29.83 in Calm     96 % 0.00 in
03:38 73.9 °F 72.7 °F 29.83 in Calm     96 % 0.00 in
03:43 73.9 °F 73.0 °F 29.83 in Calm     97 % 0.00 in
03:48 73.9 °F 73.0 °F 29.82 in Calm     97 % 0.00 in
03:53 73.9 °F 73.0 °F 29.82 in Calm     97 % 0.00 in
03:58 73.9 °F 73.0 °F 29.82 in Calm     97 % 0.00 in
04:03 74.1 °F 73.2 °F 29.83 in Calm     97 % 0.00 in
04:08 74.1 °F 73.2 °F 29.82 in Calm     97 % 0.00 in
04:13 74.1 °F 73.2 °F 29.81 in NNW 1.0 mph 2.0 mph 97 % 0.00 in
04:18 74.1 °F 73.2 °F 29.81 in Calm   2.0 mph 97 % 0.00 in
04:23 73.9 °F 73.0 °F 29.82 in NW 1.0 mph 2.0 mph 97 % 0.00 in
04:28 74.1 °F 73.2 °F 29.82 in Calm   3.0 mph 97 % 0.00 in
04:33 74.1 °F 73.2 °F 29.81 in NW 1.0 mph 3.0 mph 97 % 0.00 in
04:38 74.1 °F 73.2 °F 29.81 in North 2.0 mph 4.0 mph 97 % 0.00 in
04:43 74.1 °F 73.2 °F 29.81 in North 2.0 mph 4.0 mph 97 % 0.00 in
04:48 74.1 °F 73.2 °F 29.81 in Calm   4.0 mph 97 % 0.00 in
04:53 74.1 °F 73.2 °F 29.81 in NNW 1.0 mph 4.0 mph 97 % 0.00 in
04:58 73.9 °F 73.0 °F 29.81 in WNW 2.0 mph 5.0 mph 97 % 0.00 in
05:03 73.9 °F 73.0 °F 29.81 in WNW 3.0 mph 5.0 mph 97 % 0.00 in
05:08 73.8 °F 72.9 °F 29.81 in NW 2.0 mph 5.0 mph 97 % 0.00 in
05:13 73.8 °F 72.9 °F 29.82 in NNW 3.0 mph 5.0 mph 97 % 0.00 in
05:18 73.8 °F 72.9 °F 29.82 in NW 2.0 mph 5.0 mph 97 % 0.00 in
05:23 73.6 °F 72.7 °F 29.82 in NW 1.0 mph 5.0 mph 97 % 0.00 in
05:28 73.6 °F 72.7 °F 29.83 in North 1.0 mph 6.0 mph 97 % 0.00 in
05:34 73.6 °F 72.7 °F 29.83 in East 2.0 mph 6.0 mph 97 % 0.00 in
05:38 73.6 °F 72.7 °F 29.83 in Calm   6.0 mph 97 % 0.00 in
05:43 73.6 °F 72.7 °F 29.83 in Calm   3.0 mph 97 % 0.00 in
05:48 73.6 °F 73.0 °F 29.83 in Calm   3.0 mph 98 % 0.00 in
05:54 73.6 °F 73.0 °F 29.82 in Calm   2.0 mph 98 % 0.00 in
05:59 73.6 °F 73.0 °F 29.83 in NNW 1.0 mph 2.0 mph 98 % 0.00 in
06:04 73.6 °F 73.0 °F 29.82 in Calm   2.0 mph 98 % 0.00 in
06:09 73.6 °F 73.0 °F 29.82 in North 1.0 mph 2.0 mph 98 % 0.00 in
06:14 73.6 °F 72.7 °F 29.82 in NNW 1.0 mph 2.0 mph 97 % 0.00 in
06:19 73.6 °F 72.7 °F 29.82 in NW 1.0 mph 2.0 mph 97 % 0.00 in
06:20 73.6 °F 72.7 °F 29.83 in Calm   2.0 mph 97 % 0.00 in
06:25 73.4 °F 72.5 °F 29.83 in Calm   2.0 mph 97 % 0.00 in
06:30 73.4 °F 72.5 °F 29.83 in North 1.0 mph 2.0 mph 97 % 0.00 in
06:35 73.6 °F 72.7 °F 29.84 in WNW 1.0 mph 2.0 mph 97 % 0.00 in
06:40 73.6 °F 72.7 °F 29.84 in NW 1.0 mph 2.0 mph 97 % 0.00 in
06:45 73.6 °F 72.7 °F 29.84 in NW 1.0 mph 3.0 mph 97 % 0.00 in
06:55 73.4 °F 72.5 °F 29.85 in NW 1.0 mph 4.0 mph 97 % 0.00 in
07:01 73.4 °F 72.5 °F 29.85 in WNW 1.0 mph 4.0 mph 97 % 0.00 in
07:06 73.4 °F 72.5 °F 29.85 in NNW 2.0 mph 4.0 mph 97 % 0.00 in
07:11 73.6 °F 72.3 °F 29.84 in NW 5.0 mph 5.0 mph 96 % 0.00 in
07:16 73.6 °F 72.3 °F 29.85 in WNW 5.0 mph 7.0 mph 96 % 0.00 in
07:21 73.0 °F 70.9 °F 29.85 in NW 14.0 mph 14.0 mph 93 % 0.00 in
07:26 72.1 °F 69.1 °F 29.85 in NW 15.0 mph 19.0 mph 90 % 0.00 in
07:31 72.1 °F 68.7 °F 29.85 in WNW 6.0 mph 19.0 mph 89 % 0.00 in
07:36 72.1 °F 69.1 °F 29.85 in NNW 5.0 mph 19.0 mph 90 % 0.00 in
07:41 71.8 °F 68.7 °F 29.86 in NW 4.0 mph 17.0 mph 90 % 0.00 in
07:46 71.4 °F 68.7 °F 29.86 in NW 2.0 mph 11.0 mph 91 % 0.00 in
07:51 71.2 °F 68.5 °F 29.85 in Calm   11.0 mph 91 % 0.01 in
07:56 71.1 °F 68.5 °F 29.85 in NW 2.0 mph 4.0 mph 92 % 0.02 in
08:01 71.1 °F 68.9 °F 29.85 in NW 1.0 mph 4.0 mph 93 % 0.03 in
08:06 71.1 °F 68.9 °F 29.85 in Calm   4.0 mph 93 % 0.04 in
08:11 70.9 °F 68.7 °F 29.85 in Calm   3.0 mph 93 % 0.04 in
08:16 70.9 °F 68.7 °F 29.84 in Calm   2.0 mph 93 % 0.04 in
08:21 70.9 °F 68.7 °F 29.84 in Calm   2.0 mph 93 % 0.04 in
08:26 70.9 °F 69.1 °F 29.83 in NNW 2.0 mph 2.0 mph 94 % 0.04 in
08:31 70.9 °F 69.1 °F 29.83 in NW 1.0 mph 2.0 mph 94 % 0.04 in
08:36 70.9 °F 69.1 °F 29.83 in Calm   2.0 mph 94 % 0.04 in
08:41 70.9 °F 69.1 °F 29.83 in Calm   2.0 mph 94 % 0.04 in
08:46 71.1 °F 69.3 °F 29.83 in Calm   1.0 mph 94 % 0.04 in
08:51 71.2 °F 69.8 °F 29.82 in Calm   1.0 mph 95 % 0.03 in
08:56 72.3 °F 71.1 °F 29.82 in Calm   1.0 mph 96 % 0.02 in
09:01 73.2 °F 71.8 °F 29.81 in Calm   1.0 mph 95 % 0.01 in
09:06 74.1 °F 72.3 °F 29.81 in Calm   1.0 mph 94 % 0.00 in
09:11 74.8 °F 72.3 °F 29.81 in Calm   2.0 mph 92 % 0.00 in
09:16 75.7 °F 72.9 °F 29.81 in Calm   2.0 mph 91 % 0.00 in
09:21 76.5 °F 73.0 °F 29.81 in SSW 1.0 mph 3.0 mph 89 % 0.00 in
09:26 77.2 °F 72.7 °F 29.81 in Calm   3.0 mph 86 % 0.00 in
09:31 78.3 °F 73.4 °F 29.82 in SW 1.0 mph 3.0 mph 85 % 0.00 in
09:36 79.0 °F 73.4 °F 29.82 in Calm   2.0 mph 83 % 0.00 in
09:41 79.5 °F 72.5 °F 29.82 in Calm   2.0 mph 79 % 0.00 in
09:46 80.1 °F 73.0 °F 29.83 in ESE 2.0 mph 2.0 mph 79 % 0.00 in
09:52 80.4 °F 72.1 °F 29.83 in Calm   2.0 mph 76 % 0.00 in
09:57 81.1 °F 70.9 °F 29.83 in Calm   2.0 mph 71 % 0.00 in
10:02 81.7 °F 70.9 °F 29.83 in Calm   3.0 mph 70 % 0.00 in
10:07 82.8 °F 72.0 °F 29.83 in South 2.0 mph 3.0 mph 70 % 0.00 in
10:12 83.1 °F 71.1 °F 29.84 in Calm   3.0 mph 67 % 0.00 in
10:17 83.1 °F 70.5 °F 29.84 in ENE 1.0 mph 3.0 mph 66 % 0.00 in
10:22 82.6 °F 70.5 °F 29.83 in Calm   3.0 mph 67 % 0.00 in
10:27 82.0 °F 70.0 °F 29.83 in NW 2.0 mph 2.0 mph 67 % 0.00 in
10:32 81.9 °F 70.7 °F 29.83 in West 1.0 mph 3.0 mph 69 % 0.00 in
10:37 81.7 °F 70.2 °F 29.82 in North 2.0 mph 3.0 mph 68 % 0.00 in
10:42 82.4 °F 70.7 °F 29.82 in ENE 1.0 mph 3.0 mph 68 % 0.00 in
10:47 83.5 °F 72.3 °F 29.82 in NNW 3.0 mph 3.0 mph 69 % 0.00 in
10:52 83.8 °F 71.8 °F 29.83 in Calm   3.0 mph 67 % 0.00 in
10:54 84.4 °F 71.8 °F 29.83 in NNW 2.0 mph 3.0 mph 66 % 0.00 in
10:58 84.6 °F 71.4 °F 29.83 in West 1.0 mph 3.0 mph 65 % 0.00 in
11:03 85.1 °F 72.5 °F 29.83 in South 2.0 mph 3.0 mph 66 % 0.00 in
11:08 85.6 °F 71.6 °F 29.83 in WNW 2.0 mph 3.0 mph 63 % 0.00 in
11:13 85.6 °F 73.0 °F 29.83 in NNW 1.0 mph 3.0 mph 66 % 0.00 in
11:18 85.6 °F 72.5 °F 29.83 in NW 1.0 mph 5.0 mph 65 % 0.00 in
11:23 86.4 °F 73.2 °F 29.82 in South 3.0 mph 5.0 mph 65 % 0.00 in
11:28 86.9 °F 72.3 °F 29.83 in WSW 1.0 mph 5.0 mph 62 % 0.00 in
11:33 87.4 °F 72.9 °F 29.83 in North 2.0 mph 4.0 mph 62 % 0.00 in
11:38 87.4 °F 73.2 °F 29.83 in North 2.0 mph 4.0 mph 63 % 0.00 in
11:43 87.3 °F 73.0 °F 29.83 in NW 1.0 mph 4.0 mph 63 % 0.00 in
11:45 87.3 °F 72.7 °F 29.83 in South 1.0 mph 4.0 mph 62 % 0.00 in
11:50 87.1 °F 73.4 °F 29.83 in Calm   6.0 mph 64 % 0.00 in
11:55 87.6 °F 73.4 °F 29.83 in NE 1.0 mph 6.0 mph 63 % 0.00 in
12:00 87.4 °F 72.9 °F 29.83 in East 1.0 mph 5.0 mph 62 % 0.00 in
12:05 87.3 °F 73.0 °F 29.83 in NNE 2.0 mph 6.0 mph 63 % 0.00 in
12:10 87.6 °F 74.3 °F 29.83 in ENE 2.0 mph 6.0 mph 65 % 0.00 in
12:15 87.6 °F 73.4 °F 29.83 in NW 1.0 mph 6.0 mph 63 % 0.00 in
12:20 87.6 °F 73.9 °F 29.83 in ESE 3.0 mph 6.0 mph 64 % 0.00 in
12:25 87.3 °F 73.6 °F 29.83 in North 1.0 mph 6.0 mph 64 % 0.00 in
12:30 86.7 °F 73.6 °F 29.82 in NW 4.0 mph 7.0 mph 65 % 0.00 in
12:35 86.5 °F 73.4 °F 29.82 in East 5.0 mph 7.0 mph 65 % 0.00 in
12:40 86.4 °F 73.2 °F 29.81 in NNW 4.0 mph 7.0 mph 65 % 0.00 in
12:45 86.7 °F 74.8 °F 29.81 in East 3.0 mph 5.0 mph 68 % 0.00 in
12:50 87.4 °F 73.2 °F 29.81 in ENE 3.0 mph 5.0 mph 63 % 0.00 in
13:01 87.4 °F 72.9 °F 29.80 in Calm   10.0 mph 62 % 0.00 in
13:05 87.6 °F 74.8 °F 29.80 in SW 2.0 mph 10.0 mph 66 % 0.00 in
13:11 87.8 °F 73.6 °F 29.79 in ENE 3.0 mph 10.0 mph 63 % 0.00 in
13:16 87.8 °F 75.0 °F 29.78 in North 1.0 mph 6.0 mph 66 % 0.00 in
13:21 88.0 °F 74.3 °F 29.78 in Calm   6.0 mph 64 % 0.00 in
13:26 88.0 °F 76.1 °F 29.78 in South 2.0 mph 6.0 mph 68 % 0.00 in
13:31 88.2 °F 74.5 °F 29.77 in ENE 3.0 mph 7.0 mph 64 % 0.00 in
13:36 88.7 °F 75.4 °F 29.77 in SSE 2.0 mph 7.0 mph 65 % 0.00 in
13:41 89.4 °F 74.7 °F 29.78 in SSE 2.0 mph 7.0 mph 62 % 0.00 in
13:46 89.2 °F 74.5 °F 29.78 in East 1.0 mph 6.0 mph 62 % 0.00 in
13:51 89.2 °F 73.9 °F 29.79 in East 3.0 mph 6.0 mph 61 % 0.00 in
13:56 88.5 °F 73.8 °F 29.79 in NNW 2.0 mph 10.0 mph 62 % 0.00 in
14:01 88.2 °F 73.4 °F 29.78 in Calm   10.0 mph 62 % 0.00 in
14:06 88.3 °F 73.6 °F 29.78 in ESE 1.0 mph 10.0 mph 62 % 0.00 in
14:11 88.9 °F 74.7 °F 29.77 in ESE 7.0 mph 7.0 mph 63 % 0.00 in
14:16 88.5 °F 75.2 °F 29.76 in ESE 4.0 mph 10.0 mph 65 % 0.00 in
14:21 88.3 °F 74.7 °F 29.75 in SE 4.0 mph 12.0 mph 64 % 0.00 in
14:26 88.0 °F 74.3 °F 29.74 in ENE 3.0 mph 12.0 mph 64 % 0.00 in
14:31 87.4 °F 74.7 °F 29.75 in East 3.0 mph 12.0 mph 66 % 0.00 in
14:36 86.9 °F 74.1 °F 29.75 in North 4.0 mph 11.0 mph 66 % 0.00 in
14:41 86.0 °F 73.8 °F 29.75 in North 1.0 mph 11.0 mph 67 % 0.00 in
14:46 85.6 °F 73.9 °F 29.75 in ENE 4.0 mph 10.0 mph 68 % 0.00 in
14:51 85.5 °F 74.1 °F 29.75 in ESE 2.0 mph 9.0 mph 69 % 0.00 in
14:56 84.9 °F 74.1 °F 29.76 in ESE 1.0 mph 8.0 mph 70 % 0.00 in
15:01 84.4 °F 74.3 °F 29.78 in SW 2.0 mph 8.0 mph 72 % 0.00 in
15:06 82.0 °F 72.1 °F 29.80 in WNW 2.0 mph 11.0 mph 72 % 0.00 in
15:11 78.8 °F 72.5 °F 29.83 in NW 4.0 mph 11.0 mph 81 % 0.22 in
15:16 75.7 °F 70.9 °F 29.84 in NW 6.0 mph 15.0 mph 85 % 0.66 in
19:27 70.7 °F 70.3 °F 29.77 in SE 3.0 mph -999.0 mph 99 % 0 in
19:28 70.7 °F 70.3 °F 29.77 in Calm   -999.0 mph 99 % 0 in
19:29 70.7 °F 70.3 °F 29.77 in Calm   -999.0 mph 99 % 0 in
19:30 70.7 °F 70.3 °F 29.77 in Calm   -999.0 mph 99 % 0 in
Spring, Texas: Villages of Bridgestone
Compliments of Weather Underground - 2.25 mb

Script developed by  Jim McMurry - jmcmurry@mwt.net Adapted for the template by  Wim van der Kuil - Leuven-Template.eu

You find our weather info also at:

UK Metoffice

WeatherCloud

Weather Underground

Mid-South Weather Network

AWEKAS

Citizen Weather Observer Program (CWOP)

HAMweather, WeatherForYou, PWS Weather

Equipment we use:

Weather-station
Davis Vantage Vue

Weather-program
Meteohub

Weather-server
Debian 7.9 x86 (Guest)

Provider
DreamHost

Davis Vantage Vue

Meteohub

Debian 7.9 x86 (Guest)

DreamHost